sensor_id;sensor_type;location;lat;lon;timestamp;temperature;humidity
43528;DHT22;52359;42.658;23.320;2022-09-14T00:00:25;13.60;99.90
43528;DHT22;52359;42.658;23.320;2022-09-14T00:02:51;13.60;99.90
43528;DHT22;52359;42.658;23.320;2022-09-14T00:05:17;13.60;99.90
43528;DHT22;52359;42.658;23.320;2022-09-14T00:07:43;13.40;99.90
43528;DHT22;52359;42.658;23.320;2022-09-14T00:10:09;13.50;99.90
43528;DHT22;52359;42.658;23.320;2022-09-14T00:12:35;13.40;99.90
43528;DHT22;52359;42.658;23.320;2022-09-14T00:15:00;13.50;99.90
43528;DHT22;52359;42.658;23.320;2022-09-14T00:17:26;13.40;99.90
43528;DHT22;52359;42.658;23.320;2022-09-14T00:19:52;13.30;99.90
43528;DHT22;52359;42.658;23.320;2022-09-14T00:22:18;13.50;99.90
43528;DHT22;52359;42.658;23.320;2022-09-14T00:24:44;13.50;99.90
43528;DHT22;52359;42.658;23.320;2022-09-14T00:27:10;13.40;99.90
43528;DHT22;52359;42.658;23.320;2022-09-14T00:29:36;13.50;99.90
43528;DHT22;52359;42.658;23.320;2022-09-14T00:32:02;13.60;99.90
43528;DHT22;52359;42.658;23.320;2022-09-14T00:34:28;13.40;99.90
43528;DHT22;52359;42.658;23.320;2022-09-14T00:36:54;13.40;99.90
43528;DHT22;52359;42.658;23.320;2022-09-14T00:39:22;13.40;99.90
43528;DHT22;52359;42.658;23.320;2022-09-14T00:41:49;13.20;99.90
43528;DHT22;52359;42.658;23.320;2022-09-14T00:46:49;13.20;99.90
43528;DHT22;52359;42.658;23.320;2022-09-14T00:52:04;13.30;99.90
43528;DHT22;52359;42.658;23.320;2022-09-14T00:54:43;13.10;99.90
43528;DHT22;52359;42.658;23.320;2022-09-14T01:12:48;13.20;99.90
43528;DHT22;52359;42.658;23.320;2022-09-14T01:15:18;13.20;99.90
43528;DHT22;52359;42.658;23.320;2022-09-14T01:18:54;13.20;99.90
43528;DHT22;52359;42.658;23.320;2022-09-14T01:21:15;13.10;99.90
43528;DHT22;52359;42.658;23.320;2022-09-14T01:37:40;12.60;99.90
43528;DHT22;52359;42.658;23.320;2022-09-14T02:58:23;11.80;99.90
43528;DHT22;52359;42.658;23.320;2022-09-14T03:00:49;12.00;99.90
43528;DHT22;52359;42.658;23.320;2022-09-14T03:03:18;12.00;99.90
43528;DHT22;52359;42.658;23.320;2022-09-14T03:05:44;11.90;99.90
43528;DHT22;52359;42.658;23.320;2022-09-14T03:08:10;11.90;99.90
43528;DHT22;52359;42.658;23.320;2022-09-14T03:10:37;11.90;99.90
43528;DHT22;52359;42.658;23.320;2022-09-14T03:13:03;11.80;99.90
43528;DHT22;52359;42.658;23.320;2022-09-14T03:15:29;11.60;99.90
43528;DHT22;52359;42.658;23.320;2022-09-14T03:17:55;11.70;99.90
43528;DHT22;52359;42.658;23.320;2022-09-14T03:20:27;11.80;99.90
43528;DHT22;52359;42.658;23.320;2022-09-14T03:22:53;11.80;99.90
43528;DHT22;52359;42.658;23.320;2022-09-14T03:25:19;11.90;99.90
43528;DHT22;52359;42.658;23.320;2022-09-14T03:27:49;11.90;99.90
43528;DHT22;52359;42.658;23.320;2022-09-14T03:30:15;12.00;99.90
43528;DHT22;52359;42.658;23.320;2022-09-14T03:32:40;12.00;99.90
43528;DHT22;52359;42.658;23.320;2022-09-14T03:35:06;12.00;99.90
43528;DHT22;52359;42.658;23.320;2022-09-14T03:37:36;11.90;99.90
43528;DHT22;52359;42.658;23.320;2022-09-14T03:40:02;11.80;99.90
43528;DHT22;52359;42.658;23.320;2022-09-14T03:42:28;11.50;99.90
43528;DHT22;52359;42.658;23.320;2022-09-14T03:44:54;11.70;99.90
43528;DHT22;52359;42.658;23.320;2022-09-14T03:47:20;11.70;99.90
43528;DHT22;52359;42.658;23.320;2022-09-14T03:49:45;11.80;99.90
43528;DHT22;52359;42.658;23.320;2022-09-14T03:52:11;11.70;99.90
43528;DHT22;52359;42.658;23.320;2022-09-14T03:54:37;11.70;99.90
43528;DHT22;52359;42.658;23.320;2022-09-14T03:57:02;11.60;99.90
43528;DHT22;52359;42.658;23.320;2022-09-14T03:59:28;11.60;99.90
43528;DHT22;52359;42.658;23.320;2022-09-14T04:01:54;11.60;99.90
43528;DHT22;52359;42.658;23.320;2022-09-14T04:04:20;11.60;99.90
43528;DHT22;52359;42.658;23.320;2022-09-14T04:06:45;11.60;99.90
43528;DHT22;52359;42.658;23.320;2022-09-14T04:09:12;11.60;99.90
43528;DHT22;52359;42.658;23.320;2022-09-14T04:11:37;11.40;99.90
43528;DHT22;52359;42.658;23.320;2022-09-14T04:14:04;11.60;99.90
43528;DHT22;52359;42.658;23.320;2022-09-14T04:16:30;11.80;99.90
43528;DHT22;52359;42.658;23.320;2022-09-14T05:25:16;13.10;99.90
43528;DHT22;52359;42.658;23.320;2022-09-14T05:27:41;13.20;99.90
43528;DHT22;52359;42.658;23.320;2022-09-14T05:30:08;13.30;99.90
43528;DHT22;52359;42.658;23.320;2022-09-14T05:37:25;13.50;99.90
43528;DHT22;52359;42.658;23.320;2022-09-14T05:39:52;13.50;99.90
43528;DHT22;52359;42.658;23.320;2022-09-14T05:42:18;13.70;99.90
43528;DHT22;52359;42.658;23.320;2022-09-14T05:44:43;13.80;99.90
43528;DHT22;52359;42.658;23.320;2022-09-14T05:47:09;13.80;99.90
43528;DHT22;52359;42.658;23.320;2022-09-14T05:49:35;13.80;99.90
43528;DHT22;52359;42.658;23.320;2022-09-14T05:52:01;13.80;99.90
43528;DHT22;52359;42.658;23.320;2022-09-14T05:54:26;14.00;99.90
43528;DHT22;52359;42.658;23.320;2022-09-14T05:56:52;14.20;99.90
43528;DHT22;52359;42.658;23.320;2022-09-14T05:59:18;14.20;99.90
43528;DHT22;52359;42.658;23.320;2022-09-14T06:01:43;14.20;99.90
43528;DHT22;52359;42.658;23.320;2022-09-14T06:04:10;14.30;99.90
43528;DHT22;52359;42.658;23.320;2022-09-14T06:09:03;14.50;99.90
43528;DHT22;52359;42.658;23.320;2022-09-14T06:13:57;15.20;99.90
43528;DHT22;52359;42.658;23.320;2022-09-14T06:16:24;15.40;99.90
43528;DHT22;52359;42.658;23.320;2022-09-14T06:18:50;15.80;99.90
43528;DHT22;52359;42.658;23.320;2022-09-14T06:21:18;15.90;99.90
43528;DHT22;52359;42.658;23.320;2022-09-14T06:36:03;17.10;99.90
43528;DHT22;52359;42.658;23.320;2022-09-14T06:38:31;17.30;99.90
43528;DHT22;52359;42.658;23.320;2022-09-14T06:40:59;17.40;99.90
43528;DHT22;52359;42.658;23.320;2022-09-14T06:43:27;17.50;99.90
43528;DHT22;52359;42.658;23.320;2022-09-14T06:48:27;18.10;99.90
43528;DHT22;52359;42.658;23.320;2022-09-14T06:50:53;18.30;99.90
43528;DHT22;52359;42.658;23.320;2022-09-14T07:12:53;20.10;97.00
43528;DHT22;52359;42.658;23.320;2022-09-14T07:56:46;22.40;90.90
43528;DHT22;52359;42.658;23.320;2022-09-14T07:59:13;22.70;90.00
43528;DHT22;52359;42.658;23.320;2022-09-14T08:01:39;23.10;90.40
43528;DHT22;52359;42.658;23.320;2022-09-14T08:09:03;23.60;89.60
43528;DHT22;52359;42.658;23.320;2022-09-14T08:11:30;23.60;88.00
43528;DHT22;52359;42.658;23.320;2022-09-14T08:16:25;23.60;87.50
43528;DHT22;52359;42.658;23.320;2022-09-14T08:33:37;24.60;77.50
43528;DHT22;52359;42.658;23.320;2022-09-14T08:36:05;24.70;79.30
43528;DHT22;52359;42.658;23.320;2022-09-14T08:40:59;25.00;76.40
43528;DHT22;52359;42.658;23.320;2022-09-14T08:43:29;25.60;79.00
43528;DHT22;52359;42.658;23.320;2022-09-14T08:46:01;26.10;77.40
43528;DHT22;52359;42.658;23.320;2022-09-14T08:50:59;25.90;75.60
43528;DHT22;52359;42.658;23.320;2022-09-14T08:53:25;26.20;74.80
43528;DHT22;52359;42.658;23.320;2022-09-14T08:56:01;26.20;74.40
43528;DHT22;52359;42.658;23.320;2022-09-14T09:01:16;26.60;74.60
43528;DHT22;52359;42.658;23.320;2022-09-14T09:11:40;29.00;74.30
43528;DHT22;52359;42.658;23.320;2022-09-14T09:14:22;28.80;71.90
43528;DHT22;52359;42.658;23.320;2022-09-14T09:16:53;29.10;71.90
43528;DHT22;52359;42.658;23.320;2022-09-14T09:19:33;29.20;71.30
43528;DHT22;52359;42.658;23.320;2022-09-14T09:29:23;30.00;68.10
43528;DHT22;52359;42.658;23.320;2022-09-14T09:39:25;31.30;66.00
43528;DHT22;52359;42.658;23.320;2022-09-14T14:31:20;34.10;52.30
43528;DHT22;52359;42.658;23.320;2022-09-14T14:38:40;33.80;52.90
43528;DHT22;52359;42.658;23.320;2022-09-14T14:41:15;33.40;53.70
43528;DHT22;52359;42.658;23.320;2022-09-14T14:43:44;33.70;54.40
43528;DHT22;52359;42.658;23.320;2022-09-14T14:46:12;33.50;54.70
43528;DHT22;52359;42.658;23.320;2022-09-14T14:48:39;33.30;57.10
43528;DHT22;52359;42.658;23.320;2022-09-14T14:51:05;33.20;56.30
43528;DHT22;52359;42.658;23.320;2022-09-14T14:53:33;33.20;60.70
43528;DHT22;52359;42.658;23.320;2022-09-14T14:58:25;33.30;55.60
43528;DHT22;52359;42.658;23.320;2022-09-14T15:00:50;32.90;54.50
43528;DHT22;52359;42.658;23.320;2022-09-14T15:03:16;32.70;55.20
43528;DHT22;52359;42.658;23.320;2022-09-14T15:05:45;32.70;55.90
43528;DHT22;52359;42.658;23.320;2022-09-14T15:08:12;32.60;55.80
43528;DHT22;52359;42.658;23.320;2022-09-14T15:10:39;32.60;56.20
43528;DHT22;52359;42.658;23.320;2022-09-14T15:13:05;32.00;56.90
43528;DHT22;52359;42.658;23.320;2022-09-14T15:15:31;32.10;57.30
43528;DHT22;52359;42.658;23.320;2022-09-14T15:17:57;32.10;57.60
43528;DHT22;52359;42.658;23.320;2022-09-14T15:20:24;32.00;58.40
43528;DHT22;52359;42.658;23.320;2022-09-14T15:22:50;31.80;58.50
43528;DHT22;52359;42.658;23.320;2022-09-14T15:25:18;31.50;60.40
43528;DHT22;52359;42.658;23.320;2022-09-14T15:30:12;31.10;60.20
43528;DHT22;52359;42.658;23.320;2022-09-14T15:40:02;30.30;61.40
43528;DHT22;52359;42.658;23.320;2022-09-14T15:42:28;30.40;61.80
43528;DHT22;52359;42.658;23.320;2022-09-14T15:52:30;29.90;61.30
43528;DHT22;52359;42.658;23.320;2022-09-14T15:54:55;30.00;61.90
43528;DHT22;52359;42.658;23.320;2022-09-14T17:40:20;24.20;71.50
43528;DHT22;52359;42.658;23.320;2022-09-14T17:42:46;24.10;72.80
43528;DHT22;52359;42.658;23.320;2022-09-14T17:45:11;24.00;71.70
43528;DHT22;52359;42.658;23.320;2022-09-14T17:47:37;24.00;71.70
43528;DHT22;52359;42.658;23.320;2022-09-14T17:50:03;23.90;72.00
43528;DHT22;52359;42.658;23.320;2022-09-14T17:52:29;23.60;73.10
43528;DHT22;52359;42.658;23.320;2022-09-14T17:54:55;23.50;74.50
43528;DHT22;52359;42.658;23.320;2022-09-14T17:57:21;23.40;75.60
43528;DHT22;52359;42.658;23.320;2022-09-14T17:59:47;23.20;76.60
43528;DHT22;52359;42.658;23.320;2022-09-14T18:02:12;23.10;76.80
43528;DHT22;52359;42.658;23.320;2022-09-14T18:04:38;23.30;75.60
43528;DHT22;52359;42.658;23.320;2022-09-14T18:07:04;23.20;74.10
43528;DHT22;52359;42.658;23.320;2022-09-14T18:09:30;23.10;74.40
43528;DHT22;52359;42.658;23.320;2022-09-14T18:11:56;22.90;74.90
43528;DHT22;52359;42.658;23.320;2022-09-14T18:14:23;23.00;76.60
43528;DHT22;52359;42.658;23.320;2022-09-14T18:16:49;23.00;75.20
43528;DHT22;52359;42.658;23.320;2022-09-14T18:19:15;23.00;76.10
43528;DHT22;52359;42.658;23.320;2022-09-14T18:21:41;22.90;77.10
43528;DHT22;52359;42.658;23.320;2022-09-14T18:24:09;22.80;77.00
43528;DHT22;52359;42.658;23.320;2022-09-14T18:26:35;22.60;78.10
43528;DHT22;52359;42.658;23.320;2022-09-14T18:29:03;22.60;78.60
43528;DHT22;52359;42.658;23.320;2022-09-14T18:31:29;22.40;79.10
43528;DHT22;52359;42.658;23.320;2022-09-14T18:33:56;22.30;79.60
43528;DHT22;52359;42.658;23.320;2022-09-14T18:36:24;22.20;80.40
43528;DHT22;52359;42.658;23.320;2022-09-14T18:38:50;22.10;80.20
43528;DHT22;52359;42.658;23.320;2022-09-14T18:41:18;22.30;80.10
43528;DHT22;52359;42.658;23.320;2022-09-14T18:43:46;22.10;80.80
43528;DHT22;52359;42.658;23.320;2022-09-14T18:46:12;22.10;81.70
43528;DHT22;52359;42.658;23.320;2022-09-14T18:48:38;22.10;82.20
43528;DHT22;52359;42.658;23.320;2022-09-14T18:51:05;22.00;81.60
43528;DHT22;52359;42.658;23.320;2022-09-14T18:53:32;21.90;82.50
43528;DHT22;52359;42.658;23.320;2022-09-14T18:56:06;21.60;83.70
43528;DHT22;52359;42.658;23.320;2022-09-14T18:58:34;21.40;84.30
43528;DHT22;52359;42.658;23.320;2022-09-14T19:01:00;21.50;84.10
43528;DHT22;52359;42.658;23.320;2022-09-14T19:03:28;21.50;84.40
43528;DHT22;52359;42.658;23.320;2022-09-14T19:05:54;21.30;85.40
43528;DHT22;52359;42.658;23.320;2022-09-14T19:08:20;21.40;85.60
43528;DHT22;52359;42.658;23.320;2022-09-14T19:10:45;21.20;86.30
43528;DHT22;52359;42.658;23.320;2022-09-14T19:13:11;21.30;85.70
43528;DHT22;52359;42.658;23.320;2022-09-14T19:15:38;21.30;85.90
43528;DHT22;52359;42.658;23.320;2022-09-14T19:18:06;21.20;87.00
43528;DHT22;52359;42.658;23.320;2022-09-14T19:20:37;21.20;87.10
43528;DHT22;52359;42.658;23.320;2022-09-14T19:23:03;21.20;87.00
43528;DHT22;52359;42.658;23.320;2022-09-14T19:25:28;21.20;88.30
43528;DHT22;52359;42.658;23.320;2022-09-14T19:27:54;21.20;87.20
43528;DHT22;52359;42.658;23.320;2022-09-14T19:30:20;21.20;86.90
43528;DHT22;52359;42.658;23.320;2022-09-14T19:32:46;21.10;86.10
43528;DHT22;52359;42.658;23.320;2022-09-14T19:35:11;21.20;86.60
43528;DHT22;52359;42.658;23.320;2022-09-14T19:37:37;21.20;88.10
43528;DHT22;52359;42.658;23.320;2022-09-14T19:40:03;21.00;88.30
43528;DHT22;52359;42.658;23.320;2022-09-14T19:42:29;20.80;88.00
43528;DHT22;52359;42.658;23.320;2022-09-14T19:44:55;20.80;89.00
43528;DHT22;52359;42.658;23.320;2022-09-14T19:47:20;20.60;88.50
43528;DHT22;52359;42.658;23.320;2022-09-14T19:49:46;20.60;89.40
43528;DHT22;52359;42.658;23.320;2022-09-14T19:52:12;20.60;89.70
43528;DHT22;52359;42.658;23.320;2022-09-14T19:54:38;20.60;90.40
43528;DHT22;52359;42.658;23.320;2022-09-14T19:57:03;20.60;90.50
43528;DHT22;52359;42.658;23.320;2022-09-14T19:59:29;20.50;90.60
43528;DHT22;52359;42.658;23.320;2022-09-14T20:01:55;20.60;90.60
43528;DHT22;52359;42.658;23.320;2022-09-14T20:04:21;20.50;90.60
43528;DHT22;52359;42.658;23.320;2022-09-14T20:06:48;20.70;90.60
43528;DHT22;52359;42.658;23.320;2022-09-14T20:09:15;20.60;90.80
43528;DHT22;52359;42.658;23.320;2022-09-14T20:11:42;20.50;91.10
43528;DHT22;52359;42.658;23.320;2022-09-14T20:16:45;20.30;91.80
43528;DHT22;52359;42.658;23.320;2022-09-14T20:19:13;20.40;92.10
43528;DHT22;52359;42.658;23.320;2022-09-14T20:21:39;20.50;91.50
43528;DHT22;52359;42.658;23.320;2022-09-14T20:26:35;20.30;91.50
43528;DHT22;52359;42.658;23.320;2022-09-14T20:29:01;20.40;91.50
